Time;durP1;ratioP1;P1;durP2;ratioP2;P2;SDS_P1;SDS_P2;PMS_P1;PMS_P2;Temp;Humidity;BMP_temperature;BMP_pressure;BME280_temperature;BME280_humidity;BME280_pressure;Samples;Min_cycle;Max_cycle;Signal;HPM_P1;HPM_P2
2021/06/06 00:00:30;;;;;;;168.98;49.05;;;14.30;99.90;;;;;;5000338;28;20471;-90
2021/06/06 00:02:56;;;;;;;185.02;52.08;;;14.30;99.90;;;;;;5011064;28;20038;-90
2021/06/06 00:05:24;;;;;;;167.98;50.15;;;14.30;99.90;;;;;;5007275;28;20617;-92
2021/06/06 00:07:50;;;;;;;221.35;54.67;;;14.30;99.90;;;;;;5003786;28;20092;-90
2021/06/06 00:10:16;;;;;;;227.65;58.72;;;14.30;99.90;;;;;;5003858;28;20041;-90
2021/06/06 00:12:42;;;;;;;224.80;61.00;;;14.20;99.90;;;;;;4998002;28;20042;-91
2021/06/06 00:15:11;;;;;;;208.57;55.55;;;14.20;99.90;;;;;;4995517;28;20042;-92
2021/06/06 00:17:37;;;;;;;243.75;67.13;;;14.30;99.90;;;;;;5011704;28;20061;-91
2021/06/06 00:20:09;;;;;;;261.70;65.53;;;14.30;99.90;;;;;;4998630;28;20453;-93
2021/06/06 00:22:35;;;;;;;256.77;68.95;;;14.30;99.90;;;;;;5011942;28;20505;-91
2021/06/06 00:25:03;;;;;;;264.38;70.07;;;14.30;99.90;;;;;;4995646;28;20045;-91
2021/06/06 00:27:29;;;;;;;243.02;71.10;;;14.30;99.90;;;;;;4996429;28;20137;-92
2021/06/06 00:29:55;;;;;;;197.98;67.10;;;14.30;99.90;;;;;;5012497;28;20427;-93
2021/06/06 00:32:22;;;;;;;189.80;66.03;;;14.30;99.90;;;;;;4995528;28;20046;-93
2021/06/06 00:34:47;;;;;;;181.80;60.47;;;14.30;99.90;;;;;;4995716;28;20113;-92
2021/06/06 00:37:13;;;;;;;212.80;69.18;;;14.20;99.90;;;;;;5005337;28;20053;-92
2021/06/06 00:39:39;;;;;;;227.45;71.43;;;14.20;99.90;;;;;;5006330;28;20049;-92
2021/06/06 00:42:05;;;;;;;342.17;83.85;;;14.20;99.90;;;;;;4992899;28;20042;-92
2021/06/06 00:44:31;;;;;;;269.52;73.88;;;14.20;99.90;;;;;;5003684;28;20053;-92
2021/06/06 00:46:57;;;;;;;379.70;85.60;;;14.20;99.90;;;;;;5012017;28;20467;-92
2021/06/06 00:49:24;;;;;;;342.83;79.88;;;14.10;99.90;;;;;;5021993;28;20041;-92
2021/06/06 00:51:58;;;;;;;325.35;75.90;;;14.20;99.90;;;;;;4983973;28;20053;-92
2021/06/06 00:54:28;;;;;;;310.60;72.93;;;14.20;99.90;;;;;;5023643;28;20046;-91
2021/06/06 00:56:59;;;;;;;298.38;62.03;;;14.20;99.90;;;;;;4998175;28;20457;-93
2021/06/06 00:59:27;;;;;;;215.57;56.08;;;14.10;99.90;;;;;;5000916;28;20038;-93
2021/06/06 01:01:54;;;;;;;234.73;61.42;;;14.10;99.90;;;;;;5025881;28;20049;-92
2021/06/06 01:04:21;;;;;;;262.08;62.45;;;14.10;99.90;;;;;;5012733;28;20049;-91
2021/06/06 01:06:52;;;;;;;319.85;70.72;;;14.10;99.90;;;;;;5025123;28;20042;-91
2021/06/06 01:09:23;;;;;;;331.40;68.95;;;14.10;99.90;;;;;;5010770;28;20489;-93
2021/06/06 01:11:52;;;;;;;249.60;61.40;;;14.10;99.90;;;;;;5012263;28;20042;-92
2021/06/06 01:14:36;;;;;;;227.03;59.63;;;14.10;99.90;;;;;;5011585;28;20053;-91
2021/06/06 01:17:09;;;;;;;182.25;50.55;;;14.10;99.90;;;;;;5012008;28;20060;-92
2021/06/06 01:19:58;;;;;;;203.02;50.40;;;14.10;99.90;;;;;;5011613;28;20045;-92
2021/06/06 01:22:43;;;;;;;211.55;51.03;;;14.10;99.90;;;;;;5011023;28;20046;-92
2021/06/06 01:25:23;;;;;;;233.75;53.05;;;14.10;99.90;;;;;;5011105;28;20050;-93
2021/06/06 01:27:53;;;;;;;;;;;14.10;99.90;;;;;;5011728;28;20069;-91
2021/06/06 01:30:24;;;;;;;166.77;41.03;;;14.10;99.90;;;;;;5006160;28;20008;-91
2021/06/06 01:33:17;;;;;;;187.00;46.70;;;14.10;99.90;;;;;;5006654;28;20038;-92
2021/06/06 01:36:05;;;;;;;186.00;47.88;;;14.10;99.90;;;;;;4991647;28;20049;-90
2021/06/06 01:38:46;;;;;;;187.45;46.75;;;14.00;99.90;;;;;;4998165;28;20048;-94
2021/06/06 01:41:14;;;;;;;;;;;14.10;99.90;;;;;;5011398;28;20124;-94
2021/06/06 01:43:45;;;;;;;183.20;47.33;;;14.00;99.90;;;;;;4994805;28;19928;-92
2021/06/06 01:46:17;;;;;;;220.90;51.55;;;14.10;99.90;;;;;;5010796;28;20080;-92
2021/06/06 01:48:44;;;;;;;235.10;50.67;;;14.00;99.90;;;;;;4992373;28;20487;-91
2021/06/06 01:51:22;;;;;;;260.40;53.35;;;14.00;99.90;;;;;;4998079;28;20042;-93
2021/06/06 01:53:50;;;;;;;388.80;65.38;;;14.00;99.90;;;;;;4997648;28;20054;-92
2021/06/06 01:56:21;;;;;;;312.67;55.72;;;14.00;99.90;;;;;;5004185;28;20120;-92
2021/06/06 01:58:48;;;;;;;376.38;58.05;;;14.00;99.90;;;;;;4989656;28;20046;-91
2021/06/06 02:01:17;;;;;;;268.08;51.40;;;14.00;99.90;;;;;;5007482;28;20103;-93
2021/06/06 02:03:47;;;;;;;280.45;55.13;;;14.00;99.90;;;;;;5015460;28;20045;-94
2021/06/06 02:06:16;;;;;;;270.60;52.55;;;14.00;99.90;;;;;;5015276;28;20050;-93
2021/06/06 02:08:44;;;;;;;303.65;56.05;;;13.90;99.90;;;;;;5015633;28;20045;-93
2021/06/06 02:11:16;;;;;;;387.73;56.42;;;13.90;99.90;;;;;;5016879;28;20045;-93
2021/06/06 02:13:44;;;;;;;368.90;56.72;;;13.90;99.90;;;;;;5016192;28;20049;-94
2021/06/06 02:16:17;;;;;;;488.38;63.03;;;13.90;99.90;;;;;;5015022;28;20108;-92
2021/06/06 02:18:43;;;;;;;388.35;58.97;;;13.90;99.90;;;;;;5015139;28;20140;-92
2021/06/06 02:21:09;;;;;;;343.13;57.10;;;13.90;99.90;;;;;;5015321;28;20076;-91
2021/06/06 02:23:39;;;;;;;313.85;54.55;;;13.90;99.90;;;;;;5014820;28;20085;-92
2021/06/06 02:26:17;;;;;;;296.52;52.83;;;13.90;99.90;;;;;;5014885;28;20045;-93
2021/06/06 02:29:20;;;;;;;296.60;53.22;;;13.80;99.90;;;;;;4999096;28;20169;-94
2021/06/06 02:31:55;;;;;;;259.00;51.65;;;13.80;99.90;;;;;;4988054;28;20061;-94
2021/06/06 02:34:40;;;;;;;303.45;54.63;;;13.80;99.90;;;;;;5000496;28;20050;-93
2021/06/06 02:37:30;;;;;;;324.52;58.30;;;13.80;99.90;;;;;;4998499;28;20046;-93
2021/06/06 02:40:02;;;;;;;404.38;55.95;;;13.80;99.90;;;;;;4998677;28;20050;-92
2021/06/06 02:42:35;;;;;;;402.40;55.05;;;13.80;99.90;;;;;;5014737;28;20394;-90
2021/06/06 02:45:07;;;;;;;471.27;56.83;;;13.80;99.90;;;;;;5005148;28;20065;-92
2021/06/06 02:47:36;;;;;;;414.35;53.35;;;13.80;99.90;;;;;;4986290;28;20256;-91
2021/06/06 02:50:09;;;;;;;388.73;54.78;;;13.80;99.90;;;;;;4997765;28;20042;-93
2021/06/06 02:52:45;;;;;;;279.40;54.38;;;13.70;99.90;;;;;;5005198;28;20093;-91
2021/06/06 02:55:33;;;;;;;230.93;48.40;;;13.70;99.90;;;;;;4997656;28;20060;-93
2021/06/06 02:58:06;;;;;;;300.13;58.00;;;13.80;99.90;;;;;;5015372;28;20046;-93
2021/06/06 03:00:37;;;;;;;274.45;55.10;;;13.80;99.90;;;;;;5014205;28;20042;-94
2021/06/06 03:03:33;;;;;;;246.38;53.75;;;13.80;99.90;;;;;;5014775;28;20372;-93
2021/06/06 03:06:04;;;;;;;189.80;47.58;;;13.80;99.90;;;;;;5013464;28;20053;-94
2021/06/06 03:08:30;;;;;;;155.75;46.08;;;13.80;99.90;;;;;;4998099;28;20058;-94
2021/06/06 03:10:57;;;;;;;119.05;39.35;;;13.80;99.90;;;;;;4978528;28;20446;-94
2021/06/06 03:13:42;;;;;;;83.88;29.50;;;13.80;99.90;;;;;;4979073;28;20521;-93
2021/06/06 03:16:09;;;;;;;66.80;27.63;;;13.70;99.90;;;;;;4996988;28;20425;-94
2021/06/06 03:18:38;;;;;;;59.65;24.98;;;13.70;99.90;;;;;;4987590;28;20046;-93
2021/06/06 03:21:18;;;;;;;44.70;21.92;;;13.70;99.90;;;;;;5006602;28;20145;-94
2021/06/06 03:23:50;;;;;;;56.05;22.88;;;13.80;99.90;;;;;;5014287;28;20049;-93
2021/06/06 03:26:16;;;;;;;38.55;21.58;;;13.70;99.90;;;;;;5011195;28;20054;-95
2021/06/06 03:28:43;;;;;;;44.42;22.88;;;13.80;99.90;;;;;;4978520;28;20050;-96
2021/06/06 03:31:20;;;;;;;38.70;22.77;;;13.80;99.90;;;;;;5009336;28;20065;-91
2021/06/06 03:33:53;;;;;;;40.67;25.17;;;13.80;99.90;;;;;;5013850;28;20041;-94
2021/06/06 03:36:26;;;;;;;41.95;24.63;;;13.80;99.90;;;;;;5013070;28;20084;-94
2021/06/06 03:38:52;;;;;;;45.30;25.90;;;13.80;99.90;;;;;;5014649;28;20103;-93
2021/06/06 03:41:19;;;;;;;43.53;25.30;;;13.80;99.90;;;;;;5013530;28;20042;-93
2021/06/06 03:43:45;;;;;;;51.25;25.90;;;13.80;99.90;;;;;;4981516;28;20053;-94
2021/06/06 03:46:11;;;;;;;43.20;25.80;;;13.80;99.90;;;;;;5013738;28;20096;-94
2021/06/06 03:48:40;;;;;;;49.45;26.58;;;13.80;99.90;;;;;;4984368;28;20580;-94
2021/06/06 03:51:08;;;;;;;49.72;25.58;;;13.80;99.90;;;;;;5013118;28;20073;-92
2021/06/06 03:53:36;;;;;;;44.55;25.35;;;13.80;99.90;;;;;;5012174;28;20398;-92
2021/06/06 03:56:04;;;;;;;31.85;22.45;;;13.80;99.90;;;;;;5013216;28;20041;-93
2021/06/06 03:58:30;;;;;;;29.00;18.52;;;13.80;99.90;;;;;;4995998;28;20045;-94
2021/06/06 04:00:56;;;;;;;37.35;22.88;;;13.80;99.90;;;;;;5012898;28;20084;-93
2021/06/06 04:03:22;;;;;;;41.47;24.50;;;13.80;99.90;;;;;;5012530;28;20053;-95
2021/06/06 04:05:50;;;;;;;40.88;23.60;;;13.80;99.90;;;;;;5012779;28;20486;-91
2021/06/06 04:08:17;;;;;;;42.63;23.38;;;13.80;99.90;;;;;;5012613;28;20081;-91
2021/06/06 04:10:43;;;;;;;45.47;25.17;;;13.80;99.90;;;;;;4994323;28;20046;-91
2021/06/06 04:13:10;;;;;;;45.20;22.42;;;13.80;99.90;;;;;;4996268;28;20049;-91
2021/06/06 04:15:36;;;;;;;45.80;25.10;;;13.80;99.90;;;;;;5012149;28;20073;-94
2021/06/06 04:18:23;;;;;;;53.80;28.08;;;13.80;99.90;;;;;;4996793;28;20489;-93
2021/06/06 04:20:52;;;;;;;56.35;25.30;;;13.80;99.90;;;;;;5012615;28;20460;-93
2021/06/06 04:23:20;;;;;;;46.20;22.90;;;13.80;99.90;;;;;;5002909;28;20398;-92
2021/06/06 04:25:47;;;;;;;42.13;22.50;;;13.80;99.90;;;;;;5009760;28;20058;-93
2021/06/06 04:28:13;;;;;;;34.97;20.17;;;13.80;99.90;;;;;;4999959;28;20049;-91
2021/06/06 04:30:40;;;;;;;28.77;17.50;;;13.80;99.90;;;;;;4995704;28;20099;-91
2021/06/06 04:33:08;;;;;;;28.70;17.48;;;13.80;99.90;;;;;;5008386;28;20045;-93
2021/06/06 04:35:44;;;;;;;30.60;18.77;;;13.70;99.90;;;;;;5007890;28;20088;-93
2021/06/06 04:38:13;;;;;;;29.63;19.08;;;13.70;99.90;;;;;;4992142;28;20074;-93
2021/06/06 04:40:40;;;;;;;31.40;20.73;;;13.70;99.90;;;;;;5014205;28;20041;-91
2021/06/06 04:43:07;;;;;;;36.30;22.80;;;13.70;99.90;;;;;;5008521;28;20886;-93
2021/06/06 04:45:33;;;;;;;37.72;22.88;;;13.70;99.90;;;;;;5002569;28;20049;-93
2021/06/06 04:48:23;;;;;;;39.42;21.33;;;13.70;99.90;;;;;;5007034;28;20442;-93
2021/06/06 04:50:50;;;;;;;37.10;22.70;;;13.70;99.90;;;;;;5012056;28;20484;-93
2021/06/06 04:53:16;;;;;;;34.58;20.50;;;13.70;99.90;;;;;;5009861;28;20336;-94
2021/06/06 04:55:43;;;;;;;33.53;19.75;;;13.70;99.90;;;;;;4985897;28;20495;-93
2021/06/06 04:58:15;;;;;;;34.08;21.30;;;13.70;99.90;;;;;;5002338;28;20402;-93
2021/06/06 05:00:42;;;;;;;38.22;21.80;;;13.70;99.90;;;;;;4995707;28;20088;-94
2021/06/06 05:03:10;;;;;;;42.65;24.20;;;13.70;99.90;;;;;;4998814;28;20054;-92
2021/06/06 05:05:36;;;;;;;44.63;25.63;;;13.70;99.90;;;;;;5002882;28;20062;-92
2021/06/06 05:08:04;;;;;;;47.30;26.20;;;13.70;99.90;;;;;;4987971;28;20400;-93
2021/06/06 05:10:33;;;;;;;41.47;24.15;;;13.70;99.90;;;;;;4987067;28;20054;-93
2021/06/06 05:12:59;;;;;;;49.00;24.48;;;13.70;99.90;;;;;;5010401;28;20049;-94
2021/06/06 05:15:25;;;;;;;49.55;26.83;;;13.70;99.90;;;;;;4997932;28;20125;-96
2021/06/06 05:17:54;;;;;;;50.08;25.38;;;13.70;99.90;;;;;;4980236;28;20058;-93
2021/06/06 05:20:27;;;;;;;50.95;27.95;;;13.70;99.90;;;;;;5011967;28;20544;-93
2021/06/06 05:22:56;;;;;;;60.80;28.50;;;13.70;99.90;;;;;;5012223;28;20562;-92
2021/06/06 05:25:22;;;;;;;65.85;30.50;;;13.70;99.90;;;;;;5002047;28;20482;-93
2021/06/06 05:27:49;;;;;;;59.60;27.92;;;13.70;99.90;;;;;;5008552;28;20124;-93
2021/06/06 05:30:22;;;;;;;66.07;30.70;;;13.70;99.90;;;;;;4991903;28;20049;-94
2021/06/06 05:32:50;;;;;;;51.97;24.55;;;13.70;99.90;;;;;;5010586;28;20042;-93
2021/06/06 05:35:17;;;;;;;67.07;29.40;;;13.70;99.90;;;;;;5012165;28;20417;-92
2021/06/06 05:37:43;;;;;;;67.50;29.08;;;13.70;99.90;;;;;;5010649;28;20065;-93
2021/06/06 05:40:12;;;;;;;49.58;24.48;;;13.60;99.90;;;;;;5010529;28;20058;-91
2021/06/06 05:42:38;;;;;;;60.58;27.15;;;13.60;99.90;;;;;;4991132;28;20042;-93
2021/06/06 05:45:05;;;;;;;63.15;26.83;;;13.60;99.90;;;;;;4990294;28;20541;-93
2021/06/06 05:47:31;;;;;;;63.40;27.15;;;13.50;99.90;;;;;;5001476;28;20470;-94
2021/06/06 05:49:57;;;;;;;52.80;23.27;;;13.60;99.90;;;;;;4994681;28;20129;-93
2021/06/06 05:52:23;;;;;;;53.28;24.02;;;13.60;99.90;;;;;;5003359;28;20081;-92
2021/06/06 05:54:49;;;;;;;49.95;23.85;;;13.60;99.90;;;;;;5002586;28;20078;-92
2021/06/06 05:57:15;;;;;;;20.88;11.73;;;13.60;99.90;;;;;;5010886;28;20050;-92
2021/06/06 05:59:41;;;;;;;21.15;12.55;;;13.60;99.90;;;;;;5008277;28;20443;-93
2021/06/06 06:02:07;;;;;;;17.70;10.40;;;13.60;99.90;;;;;;5005081;28;20076;-93
2021/06/06 06:04:33;;;;;;;13.75;7.20;;;13.60;99.90;;;;;;4981838;28;20141;-92
2021/06/06 06:06:59;;;;;;;12.25;7.00;;;13.70;99.90;;;;;;5005149;28;20050;-93
2021/06/06 06:09:25;;;;;;;11.32;6.43;;;13.70;99.90;;;;;;5000945;28;20065;-93
2021/06/06 06:11:50;;;;;;;5.80;4.47;;;13.70;99.90;;;;;;4983670;28;20051;-93
2021/06/06 06:14:16;;;;;;;5.75;4.57;;;13.70;99.90;;;;;;5005099;28;20070;-92
2021/06/06 06:16:44;;;;;;;4.68;4.32;;;13.70;99.90;;;;;;4968626;28;20076;-92
2021/06/06 06:19:12;;;;;;;6.05;5.13;;;13.70;99.90;;;;;;5010261;28;20030;-93
2021/06/06 06:21:40;;;;;;;6.13;5.53;;;13.70;99.90;;;;;;5010509;28;20050;-94
2021/06/06 06:24:07;;;;;;;10.02;6.10;;;13.70;99.90;;;;;;4994597;28;20057;-92
2021/06/06 06:26:33;;;;;;;10.27;6.55;;;13.70;99.90;;;;;;5010752;28;20042;-93
2021/06/06 06:29:18;;;;;;;10.02;6.78;;;13.70;99.90;;;;;;4994191;28;20085;-91
2021/06/06 06:31:44;;;;;;;10.25;6.82;;;13.70;99.90;;;;;;5010584;28;20046;-93
2021/06/06 06:34:10;;;;;;;13.13;7.53;;;13.70;99.90;;;;;;4991457;28;20050;-92
2021/06/06 06:36:36;;;;;;;15.68;9.98;;;13.70;99.90;;;;;;5009492;28;20060;-93
2021/06/06 06:39:04;;;;;;;15.43;8.25;;;13.70;99.90;;;;;;5010939;28;20050;-91
2021/06/06 06:41:30;;;;;;;15.63;8.93;;;13.70;99.90;;;;;;5010213;28;20045;-94
2021/06/06 06:43:57;;;;;;;17.55;10.80;;;13.70;99.90;;;;;;4977798;28;20140;-91
2021/06/06 06:46:23;;;;;;;15.75;10.45;;;13.70;99.90;;;;;;5013292;28;20049;-91
2021/06/06 06:48:49;;;;;;;18.23;10.50;;;13.70;99.90;;;;;;5011854;28;20114;-92
2021/06/06 06:51:16;;;;;;;21.58;10.35;;;13.70;99.90;;;;;;5014265;28;20060;-92
2021/06/06 06:53:42;;;;;;;19.55;10.65;;;13.70;99.90;;;;;;5013036;28;20050;-92
2021/06/06 06:56:09;;;;;;;16.50;9.45;;;13.80;99.90;;;;;;5014058;28;20062;-92
2021/06/06 06:58:35;;;;;;;12.20;5.78;;;13.80;99.90;;;;;;5014103;28;20509;-92
2021/06/06 07:01:01;;;;;;;9.32;4.93;;;13.80;99.90;;;;;;4997810;28;20480;-92
2021/06/06 07:03:30;;;;;;;5.93;4.75;;;13.80;99.90;;;;;;5014000;28;20482;-92
2021/06/06 07:05:58;;;;;;;8.30;4.90;;;13.80;99.90;;;;;;4996053;28;20112;-92
2021/06/06 07:08:27;;;;;;;6.45;4.75;;;13.70;99.90;;;;;;4996118;28;20050;-92
2021/06/06 07:10:54;;;;;;;5.32;4.82;;;13.70;99.90;;;;;;5010374;28;20104;-91
2021/06/06 07:13:21;;;;;;;10.68;6.40;;;13.60;99.90;;;;;;5004044;28;20115;-92
2021/06/06 07:15:47;;;;;;;9.90;6.22;;;13.60;99.90;;;;;;4987705;28;20049;-92
2021/06/06 07:18:18;;;;;;;12.27;6.72;;;13.60;99.90;;;;;;5015235;28;20054;-91
2021/06/06 07:20:46;;;;;;;12.43;7.05;;;13.60;99.90;;;;;;5020083;28;20042;-94
2021/06/06 07:23:13;;;;;;;11.35;7.72;;;13.70;99.90;;;;;;5015884;28;20049;-91
2021/06/06 07:25:40;;;;;;;13.82;9.30;;;13.70;99.90;;;;;;5007522;28;20141;-91
2021/06/06 07:28:13;;;;;;;18.05;11.75;;;13.80;99.90;;;;;;5012786;28;20144;-92
2021/06/06 07:30:46;;;;;;;19.40;11.82;;;13.80;99.90;;;;;;4989790;28;20068;-92
2021/06/06 07:33:20;;;;;;;22.60;12.23;;;13.80;99.90;;;;;;5010938;28;20042;-92
2021/06/06 07:35:46;;;;;;;23.23;12.57;;;13.80;99.90;;;;;;4982310;28;20490;-92
2021/06/06 07:38:32;;;;;;;25.75;12.60;;;13.70;99.90;;;;;;4983866;28;20081;-93
2021/06/06 07:40:59;;;;;;;22.13;10.52;;;13.70;99.90;;;;;;5006843;28;20143;-92
2021/06/06 07:43:28;;;;;;;16.63;10.07;;;13.70;99.90;;;;;;5011531;28;20573;-92
2021/06/06 07:45:54;;;;;;;17.85;11.10;;;13.70;99.90;;;;;;5004495;28;20050;-95
2021/06/06 07:48:21;;;;;;;15.65;9.10;;;13.70;99.90;;;;;;5008681;28;20041;-93
2021/06/06 07:50:50;;;;;;;19.40;9.73;;;13.70;99.90;;;;;;4999951;28;20039;-92
2021/06/06 07:53:18;;;;;;;17.40;10.48;;;13.80;99.90;;;;;;5000659;28;20123;-92
2021/06/06 07:55:48;;;;;;;17.85;9.90;;;13.80;99.90;;;;;;5009164;28;20070;-90
2021/06/06 07:58:19;;;;;;;17.17;9.98;;;13.70;99.90;;;;;;5001260;28;20077;-90
2021/06/06 08:00:45;;;;;;;16.83;10.80;;;13.80;99.90;;;;;;5010781;28;20509;-92
2021/06/06 08:03:12;;;;;;;17.10;10.80;;;13.80;99.90;;;;;;5021264;28;20057;-91
2021/06/06 08:05:40;;;;;;;14.55;9.23;;;13.80;99.90;;;;;;5005572;28;20042;-90
2021/06/06 08:08:08;;;;;;;19.60;10.90;;;13.80;99.90;;;;;;5006303;28;20060;-89
2021/06/06 08:10:36;;;;;;;19.13;10.57;;;13.80;99.90;;;;;;5001621;28;20052;-88
2021/06/06 08:13:03;;;;;;;23.52;12.05;;;13.80;99.90;;;;;;4997819;28;20070;-89
2021/06/06 08:15:30;;;;;;;19.98;11.73;;;13.90;99.90;;;;;;5003780;28;20486;-89
2021/06/06 08:17:57;;;;;;;11.88;8.07;;;13.90;99.90;;;;;;4995015;28;20046;-89
2021/06/06 08:20:28;;;;;;;10.07;6.55;;;14.00;99.90;;;;;;4998979;28;20141;-90
2021/06/06 08:22:54;;;;;;;13.75;9.10;;;13.90;99.90;;;;;;5009716;28;20065;-89
2021/06/06 08:25:22;;;;;;;8.18;7.25;;;13.90;99.90;;;;;;4999498;28;20101;-88
2021/06/06 08:27:49;;;;;;;12.05;8.48;;;13.90;99.90;;;;;;5007434;28;20072;-88
2021/06/06 08:30:24;;;;;;;13.68;8.98;;;13.90;99.90;;;;;;5004096;28;20050;-88
2021/06/06 08:32:50;;;;;;;15.80;10.48;;;14.00;99.90;;;;;;4998681;28;20050;-87
2021/06/06 08:35:17;;;;;;;17.45;10.05;;;14.10;99.90;;;;;;4996237;28;20054;-87
2021/06/06 08:37:43;;;;;;;13.35;8.18;;;14.10;99.90;;;;;;5001370;28;20108;-89
2021/06/06 08:40:12;;;;;;;12.25;8.80;;;14.10;99.90;;;;;;5009838;28;20041;-89
2021/06/06 08:42:43;;;;;;;8.00;6.90;;;14.20;99.90;;;;;;4996768;28;20046;-92
2021/06/06 08:45:46;;;;;;;9.30;7.53;;;14.20;99.90;;;;;;5009513;28;20379;-89
2021/06/06 08:48:14;;;;;;;8.55;7.50;;;14.10;99.90;;;;;;5000538;28;20470;-90
2021/06/06 08:50:43;;;;;;;9.75;8.15;;;14.20;99.90;;;;;;5004126;28;20042;-93
2021/06/06 08:53:34;;;;;;;8.10;6.97;;;14.20;99.90;;;;;;5004488;28;20060;-92
2021/06/06 08:56:35;;;;;;;9.45;8.50;;;14.20;99.90;;;;;;4996782;28;20038;-87
2021/06/06 08:59:04;;;;;;;11.50;8.70;;;14.20;99.90;;;;;;4986635;28;20118;-88
2021/06/06 09:01:44;;;;;;;11.05;8.82;;;14.30;99.90;;;;;;5004576;28;20041;-87
2021/06/06 09:04:26;;;;;;;13.43;9.50;;;14.30;99.90;;;;;;5010617;28;20050;-87
2021/06/06 09:06:53;;;;;;;15.95;12.15;;;14.30;99.90;;;;;;4999188;28;20050;-87
2021/06/06 09:09:26;;;;;;;20.60;12.07;;;14.30;99.90;;;;;;5007146;28;20034;-87
2021/06/06 09:11:56;;;;;;;21.17;11.07;;;14.30;99.90;;;;;;5003993;28;20053;-88
2021/06/06 09:14:22;;;;;;;23.08;13.88;;;14.30;99.90;;;;;;5010253;28;20486;-88
2021/06/06 09:17:33;;;;;;;19.40;13.45;;;14.30;99.90;;;;;;4991799;28;20134;-88
2021/06/06 09:20:00;;;;;;;24.50;16.15;;;14.30;99.90;;;;;;4972952;28;20049;-87
2021/06/06 09:22:40;;;;;;;22.80;14.45;;;14.30;99.90;;;;;;4997386;28;20104;-88
2021/06/06 09:25:13;;;;;;;27.55;16.02;;;14.30;99.90;;;;;;5007028;28;20061;-86
2021/06/06 09:27:40;;;;;;;23.63;15.27;;;14.30;99.90;;;;;;5010615;28;20061;-87
2021/06/06 09:30:15;;;;;;;31.13;18.02;;;14.30;99.90;;;;;;5010664;28;20038;-86
2021/06/06 09:32:42;;;;;;;30.25;16.85;;;14.30;99.90;;;;;;5010796;28;20042;-87
2021/06/06 09:35:36;;;;;;;27.00;16.85;;;14.30;99.90;;;;;;5003451;28;20530;-88
2021/06/06 09:38:36;;;;;;;29.60;16.92;;;14.40;99.90;;;;;;5004515;28;20136;-86
2021/06/06 09:41:34;;;;;;;;;;;14.30;99.90;;;;;;4969745;28;20050;-86
2021/06/06 09:44:16;;;;;;;29.58;18.63;;;14.30;99.90;;;;;;5009424;28;19944;-88
2021/06/06 09:47:06;;;;;;;28.30;18.30;;;14.30;99.90;;;;;;5021695;28;20038;-87
2021/06/06 09:49:41;;;;;;;30.65;17.17;;;14.40;99.90;;;;;;4998779;28;20640;-88
2021/06/06 09:52:13;;;;;;;32.75;19.02;;;14.40;99.90;;;;;;4992570;28;20125;-88
2021/06/06 09:54:41;;;;;;;29.20;16.10;;;14.50;99.90;;;;;;4999375;28;20457;-87
2021/06/06 09:57:29;;;;;;;27.77;16.17;;;14.50;99.90;;;;;;4987479;28;20046;-85
2021/06/06 10:00:04;;;;;;;26.42;14.27;;;14.60;99.90;;;;;;5001031;28;20042;-89
2021/06/06 10:02:36;;;;;;;25.08;13.00;;;14.60;99.90;;;;;;5007464;28;20038;-87
2021/06/06 10:05:13;;;;;;;21.98;13.23;;;14.60;99.90;;;;;;4998871;28;20042;-86
2021/06/06 10:07:44;;;;;;;22.48;13.85;;;14.60;99.90;;;;;;5004769;28;20502;-87
2021/06/06 10:10:17;;;;;;;26.63;15.88;;;14.60;99.90;;;;;;4995438;28;20050;-87
2021/06/06 10:12:47;;;;;;;21.73;13.32;;;14.60;99.90;;;;;;5010032;28;20057;-90
2021/06/06 10:15:33;;;;;;;28.95;16.25;;;14.70;99.90;;;;;;5013172;28;20041;-85
2021/06/06 10:18:10;;;;;;;31.35;16.58;;;14.80;99.90;;;;;;5019462;28;20061;-88
2021/06/06 10:20:42;;;;;;;29.70;16.88;;;14.90;99.90;;;;;;5011537;28;20120;-86
2021/06/06 10:23:25;;;;;;;23.95;14.65;;;14.90;99.90;;;;;;5006213;28;20314;-84
2021/06/06 10:26:12;;;;;;;25.80;16.63;;;14.90;99.90;;;;;;5002814;28;20466;-89
2021/06/06 10:28:47;;;;;;;20.60;13.38;;;14.90;99.90;;;;;;5003847;28;20061;-87
2021/06/06 10:31:37;;;;;;;25.42;14.85;;;15.00;99.90;;;;;;5015047;28;20056;-86
2021/06/06 10:34:58;;;;;;;20.30;13.20;;;15.00;99.90;;;;;;5016574;28;20077;-87
2021/06/06 10:37:26;;;;;;;20.17;12.85;;;14.90;99.90;;;;;;4982761;28;20060;-90
2021/06/06 10:39:56;;;;;;;28.00;13.15;;;15.00;99.90;;;;;;4993950;28;20509;-86
2021/06/06 10:42:34;;;;;;;;;;;15.00;99.90;;;;;;5021802;28;20049;-86
2021/06/06 10:45:19;;;;;;;21.85;13.30;;;15.00;99.90;;;;;;5019749;28;19928;-89
2021/06/06 10:48:00;;;;;;;24.83;13.98;;;15.00;99.90;;;;;;5001156;28;20039;-87
2021/06/06 10:50:37;;;;;;;15.90;11.02;;;15.00;99.90;;;;;;4997099;28;20053;-89
2021/06/06 10:53:16;;;;;;;25.67;13.75;;;14.90;99.90;;;;;;4997983;28;112390;-90
2021/06/06 10:56:01;;;;;;;18.17;12.07;;;15.00;99.90;;;;;;5002452;28;20053;-87
2021/06/06 10:58:33;;;;;;;19.88;12.07;;;15.00;99.90;;;;;;5014793;28;20039;-89
2021/06/06 11:01:07;;;;;;;21.73;13.60;;;14.90;99.90;;;;;;5019787;28;20091;-88
2021/06/06 11:03:36;;;;;;;21.48;11.85;;;14.90;99.90;;;;;;5019100;28;20103;-88
2021/06/06 11:06:19;;;;;;;15.15;11.20;;;14.90;99.90;;;;;;5015799;28;20045;-86
2021/06/06 11:08:45;;;;;;;14.80;9.75;;;14.90;99.90;;;;;;5020142;28;20053;-90
2021/06/06 11:11:33;;;;;;;13.82;10.27;;;15.00;99.90;;;;;;5006077;28;20057;-91
2021/06/06 11:14:07;;;;;;;15.52;12.27;;;14.90;99.90;;;;;;5021401;28;20049;-89
2021/06/06 11:16:42;;;;;;;15.80;12.27;;;14.90;99.90;;;;;;5017174;28;20030;-90
2021/06/06 11:19:18;;;;;;;21.38;12.63;;;14.90;99.90;;;;;;5008106;28;20368;-91
2021/06/06 11:21:54;;;;;;;16.98;11.43;;;14.80;99.90;;;;;;5016484;28;20490;-92
2021/06/06 11:24:48;;;;;;;15.63;11.73;;;14.80;99.90;;;;;;4996417;28;20092;-91
2021/06/06 11:27:19;;;;;;;16.42;11.68;;;14.80;99.90;;;;;;5005072;28;20125;-90
2021/06/06 11:29:53;;;;;;;11.88;10.23;;;14.80;99.90;;;;;;5013024;28;20042;-88
2021/06/06 11:32:56;;;;;;;15.52;10.77;;;14.70;99.90;;;;;;5011685;28;20050;-89
2021/06/06 11:35:35;;;;;;;17.33;11.85;;;14.70;99.90;;;;;;4996768;28;20066;-90
2021/06/06 11:38:29;;;;;;;18.50;10.57;;;14.60;99.90;;;;;;5019603;28;20050;-89
2021/06/06 11:41:33;;;;;;;23.60;14.63;;;14.50;99.90;;;;;;5022614;28;20122;-91
2021/06/06 11:44:21;;;;;;;20.27;13.15;;;14.60;99.90;;;;;;5014852;28;20111;-90
2021/06/06 11:47:12;;;;;;;22.85;12.80;;;14.60;99.90;;;;;;5023704;28;20042;-89
2021/06/06 11:49:54;;;;;;;25.98;15.57;;;14.50;99.90;;;;;;5001390;28;20042;-95
2021/06/06 11:52:39;;;;;;;22.27;13.77;;;14.60;99.90;;;;;;5001321;28;20042;-92
2021/06/06 11:55:17;;;;;;;22.77;14.70;;;14.50;99.90;;;;;;5002430;28;20133;-94
2021/06/06 11:57:50;;;;;;;18.30;11.88;;;14.50;99.90;;;;;;5012845;28;20099;-93
2021/06/06 12:00:31;;;;;;;23.63;14.20;;;14.50;99.90;;;;;;5000296;28;20030;-93
2021/06/06 12:03:23;;;;;;;29.13;15.68;;;14.60;99.90;;;;;;4996227;28;20057;-94
2021/06/06 12:06:23;;;;;;;29.50;17.42;;;14.60;99.90;;;;;;5010810;28;20077;-92
2021/06/06 12:08:51;;;;;;;21.58;14.35;;;14.70;99.90;;;;;;5018182;28;20073;-93
2021/06/06 12:11:20;;;;;;;15.85;10.35;;;14.70;99.90;;;;;;5002324;28;20667;-90
2021/06/06 12:13:53;;;;;;;19.50;12.85;;;14.70;99.90;;;;;;5010805;28;20092;-93
2021/06/06 12:16:22;;;;;;;17.80;11.88;;;14.70;99.90;;;;;;4995898;28;20040;-91
2021/06/06 12:19:08;;;;;;;13.90;11.07;;;14.70;99.90;;;;;;5005450;28;20121;-90
2021/06/06 12:21:38;;;;;;;16.55;10.55;;;14.70;99.90;;;;;;4994088;28;20046;-94
2021/06/06 12:24:19;;;;;;;12.50;10.35;;;14.70;99.90;;;;;;5003333;28;20042;-92
2021/06/06 12:27:00;;;;;;;11.02;7.25;;;14.80;99.90;;;;;;5006019;28;20042;-93
2021/06/06 12:29:47;;;;;;;8.95;8.05;;;14.80;99.90;;;;;;5008909;28;20049;-92
2021/06/06 12:32:35;;;;;;;14.32;9.95;;;14.80;99.90;;;;;;4997196;28;20459;-94
2021/06/06 12:35:17;;;;;;;10.48;8.38;;;14.80;99.90;;;;;;4998553;28;20050;-95
2021/06/06 12:37:47;;;;;;;10.73;8.20;;;14.80;99.90;;;;;;4990488;28;20047;-96
2021/06/06 12:40:17;;;;;;;14.23;9.60;;;14.80;99.90;;;;;;4997763;28;20410;-96
2021/06/06 12:42:44;;;;;;;10.00;8.45;;;15.00;99.90;;;;;;5003266;28;20115;-96
2021/06/06 12:45:14;;;;;;;11.90;9.32;;;14.90;99.90;;;;;;4981567;28;20049;-96
2021/06/06 12:47:43;;;;;;;18.58;9.10;;;14.90;99.90;;;;;;5002956;28;20034;-96
2021/06/06 12:50:14;;;;;;;9.75;7.55;;;15.00;99.90;;;;;;5018253;28;20049;-96
2021/06/06 12:52:39;;;;;;;;;;;14.90;99.90;;;;;;5014352;28;20484;-96
2021/06/06 12:55:17;;;;;;;11.63;8.77;;;14.90;99.90;;;;;;5010927;28;19964;-96